Time;durP1;ratioP1;P1;durP2;ratioP2;P2;SDS_P1;SDS_P2;PMS_P1;PMS_P2;Temp;Humidity;BMP_temperature;BMP_pressure;BME280_temperature;BME280_humidity;BME280_pressure;Samples;Min_cycle;Max_cycle;Signal;HPM_P1;HPM_P2
2021/06/06 00:01:22;;;;;;;0.60;0.60;;;;;;;-144.31;68.47;74646.97;5004174;28;20081;-72
2021/06/06 00:03:50;;;;;;;0.70;0.70;;;;;;;-144.31;68.46;74642.97;5004707;28;20443;-73
2021/06/06 00:06:22;;;;;;;0.80;0.80;;;;;;;-144.31;68.43;74646.97;5006949;28;20065;-73
2021/06/06 00:08:49;;;;;;;0.52;0.52;;;;;;;-144.31;68.43;74658.94;5007429;28;20042;-73
2021/06/06 00:11:21;;;;;;;0.60;0.60;;;;;;;-144.31;68.41;74652.94;5008176;28;20038;-73
2021/06/06 00:13:49;;;;;;;0.60;0.60;;;;;;;-144.31;68.41;74666.94;5006010;28;20050;-73
2021/06/06 00:16:27;;;;;;;0.70;0.70;;;;;;;-144.31;68.39;74658.94;5005968;28;20111;-72
2021/06/06 00:18:53;;;;;;;0.60;0.60;;;;;;;-144.31;68.41;74674.91;5005769;28;20045;-71
2021/06/06 00:21:20;;;;;;;0.77;0.77;;;;;;;-144.31;68.40;74686.91;5004501;28;20460;-73
2021/06/06 00:23:48;;;;;;;0.73;0.73;;;;;;;-144.31;68.38;74676.91;4998279;28;20058;-73
2021/06/06 00:26:13;;;;;;;0.50;0.50;;;;;;;-144.31;68.37;74678.91;5008407;28;20571;-74
2021/06/06 00:28:39;;;;;;;0.52;0.52;;;;;;;-144.31;68.35;74664.94;5003496;28;20108;-72
2021/06/06 00:31:07;;;;;;;0.50;0.50;;;;;;;-144.31;68.34;74662.94;5006126;28;20045;-73
2021/06/06 00:33:33;;;;;;;0.60;0.60;;;;;;;-144.31;68.33;74670.91;5014373;28;20092;-73
2021/06/06 00:36:03;;;;;;;0.60;0.60;;;;;;;-144.31;68.34;74680.91;5007223;28;20132;-73
2021/06/06 00:38:30;;;;;;;0.70;0.70;;;;;;;-144.31;68.33;74682.91;5005335;28;20108;-72
2021/06/06 00:40:58;;;;;;;0.65;0.65;;;;;;;-144.31;68.35;74702.88;5006165;28;20049;-73
2021/06/06 00:43:28;;;;;;;0.50;0.50;;;;;;;-144.31;68.34;74696.88;5007007;28;20068;-73
2021/06/06 00:45:56;;;;;;;0.60;0.60;;;;;;;-144.31;68.34;74706.88;5014410;28;20073;-73
2021/06/06 00:48:22;;;;;;;0.70;0.70;;;;;;;-144.31;68.31;74696.88;5006418;28;20037;-74
2021/06/06 00:51:00;;;;;;;0.60;0.60;;;;;;;-144.31;68.33;74698.88;5005495;28;20521;-72
2021/06/06 00:53:40;;;;;;;0.47;0.47;;;;;;;-144.31;68.30;74674.91;5006582;28;20041;-73
2021/06/06 00:56:14;;;;;;;0.60;0.60;;;;;;;-144.31;68.30;74672.91;5005955;28;20363;-73
2021/06/06 00:58:42;;;;;;;0.50;0.50;;;;;;;-144.31;68.28;74668.91;4998934;28;20054;-71
2021/06/06 01:01:11;;;;;;;0.50;0.50;;;;;;;-144.31;68.31;74688.88;5004852;28;20414;-72
2021/06/06 01:03:37;;;;;;;0.45;0.45;;;;;;;-144.31;68.30;74698.88;4998936;28;20058;-73
2021/06/06 01:06:13;;;;;;;0.40;0.40;;;;;;;-144.31;68.30;74698.88;5007088;28;20038;-73
2021/06/06 01:08:43;;;;;;;0.47;0.47;;;;;;;-144.31;68.29;74698.88;5001184;28;20116;-72
2021/06/06 01:11:16;;;;;;;0.60;0.60;;;;;;;-144.31;68.27;74682.91;5004980;28;20085;-73
2021/06/06 01:14:05;;;;;;;0.40;0.40;;;;;;;-144.31;68.25;74644.97;5004287;28;20084;-72
2021/06/06 01:16:36;;;;;;;0.40;0.40;;;;;;;-144.31;68.26;74660.94;4989665;28;20329;-73
2021/06/06 01:19:13;;;;;;;0.60;0.60;;;;;;;-144.31;68.28;74676.91;5005818;28;20149;-73
2021/06/06 01:21:49;;;;;;;0.60;0.60;;;;;;;-144.31;68.26;74678.91;5015842;28;20040;-72
2021/06/06 01:24:30;;;;;;;0.60;0.60;;;;;;;-144.31;68.27;74686.91;5020010;28;20049;-71
2021/06/06 01:27:10;;;;;;;0.50;0.50;;;;;;;-144.31;68.26;74680.91;4989732;28;20050;-72
2021/06/06 01:29:49;;;;;;;0.60;0.60;;;;;;;-144.31;68.26;74686.91;5009209;28;20113;-72
2021/06/06 01:32:25;;;;;;;0.40;0.40;;;;;;;-144.31;68.27;74692.88;5008309;28;20050;-72
2021/06/06 01:35:13;;;;;;;0.50;0.50;;;;;;;-144.31;68.27;74686.91;4995347;28;20128;-73
2021/06/06 01:37:46;;;;;;;0.40;0.40;;;;;;;-144.31;68.26;74686.91;5003353;28;20038;-73
2021/06/06 01:40:21;;;;;;;0.38;0.38;;;;;;;-144.31;68.24;74680.91;5006021;28;20389;-73
2021/06/06 01:42:54;;;;;;;0.52;0.52;;;;;;;-144.31;68.24;74674.91;5020188;28;20569;-73
2021/06/06 01:45:32;;;;;;;0.40;0.40;;;;;;;-144.31;68.22;74658.94;5002005;28;20518;-73
2021/06/06 01:48:07;;;;;;;0.50;0.50;;;;;;;-144.31;68.21;74658.94;5004269;28;20038;-73
2021/06/06 01:50:45;;;;;;;0.60;0.60;;;;;;;-144.31;68.20;74642.97;4988718;28;20041;-73
2021/06/06 01:53:13;;;;;;;0.50;0.50;;;;;;;-144.31;68.20;74638.97;5000813;28;20407;-73
2021/06/06 01:55:46;;;;;;;0.55;0.55;;;;;;;-144.31;68.22;74660.94;5004098;28;20364;-73
2021/06/06 01:58:14;;;;;;;0.50;0.50;;;;;;;-144.31;68.23;74654.94;5001626;28;20034;-74
2021/06/06 02:00:58;;;;;;;0.57;0.57;;;;;;;-144.31;68.24;74682.91;4997637;28;20043;-73
2021/06/06 02:03:28;;;;;;;0.57;0.57;;;;;;;-144.31;68.23;74674.91;5005537;28;20443;-74
2021/06/06 02:05:57;;;;;;;0.70;0.70;;;;;;;-144.31;68.23;74668.91;5021062;28;20415;-73
2021/06/06 02:08:26;;;;;;;0.70;0.70;;;;;;;-144.31;68.23;74686.91;5004435;28;20065;-73
2021/06/06 02:10:57;;;;;;;0.50;0.50;;;;;;;-144.31;68.22;74694.88;5020495;28;20099;-74
2021/06/06 02:13:30;;;;;;;0.50;0.50;;;;;;;-144.31;68.21;74688.88;5004519;28;20045;-74
2021/06/06 02:16:00;;;;;;;0.60;0.60;;;;;;;-144.31;68.21;74706.88;5005206;28;20064;-73
2021/06/06 02:18:34;;;;;;;0.60;0.60;;;;;;;-144.31;68.21;74702.88;5011499;28;20037;-74
2021/06/06 02:21:07;;;;;;;0.70;0.70;;;;;;;-144.31;68.20;74718.84;5001239;28;20045;-73
2021/06/06 02:23:39;;;;;;;0.60;0.60;;;;;;;-144.31;68.19;74714.84;5019744;28;20041;-73
2021/06/06 02:26:18;;;;;;;0.70;0.70;;;;;;;-144.31;68.20;74730.81;5004323;28;20042;-72
2021/06/06 02:28:57;;;;;;;0.75;0.75;;;;;;;-144.31;68.20;74738.81;5003753;28;20077;-73
2021/06/06 02:31:44;;;;;;;0.70;0.70;;;;;;;-144.31;68.21;74742.81;4997218;28;20149;-74
2021/06/06 02:34:34;;;;;;;0.80;0.80;;;;;;;-144.31;68.19;74732.81;5005362;28;20053;-73
2021/06/06 02:37:10;;;;;;;0.80;0.80;;;;;;;-144.31;68.21;74736.81;4999345;28;20046;-73
2021/06/06 02:39:45;;;;;;;0.80;0.80;;;;;;;-144.31;68.20;74726.84;5003781;28;20041;-73
2021/06/06 02:42:19;;;;;;;0.73;0.73;;;;;;;-144.31;68.22;74732.81;5001104;28;20523;-74
2021/06/06 02:45:12;;;;;;;0.60;0.60;;;;;;;-144.31;68.24;74734.81;4982000;28;20050;-74
2021/06/06 02:47:39;;;;;;;0.80;0.80;;;;;;;-144.31;68.24;74740.81;4996177;28;20053;-74
2021/06/06 02:50:34;;;;;;;0.80;0.80;;;;;;;-144.31;68.27;74738.81;5011886;28;20108;-73
2021/06/06 02:53:12;;;;;;;0.90;0.90;;;;;;;-144.31;68.28;74732.81;4999622;28;20119;-73
2021/06/06 02:55:45;;;;;;;0.73;0.73;;;;;;;-144.31;68.30;74744.81;5006805;28;20081;-74
2021/06/06 02:58:36;;;;;;;0.75;0.75;;;;;;;-144.31;68.31;74744.81;5018398;28;20039;-74
2021/06/06 03:01:13;;;;;;;0.60;0.60;;;;;;;-144.31;68.33;74738.81;4999215;28;20078;-73
2021/06/06 03:03:41;;;;;;;0.70;0.70;;;;;;;-144.31;68.35;74744.81;5004766;28;20494;-74
2021/06/06 03:06:29;;;;;;;0.80;0.80;;;;;;;-144.31;68.36;74746.81;5007111;28;20046;-73
2021/06/06 03:08:56;;;;;;;0.80;0.80;;;;;;;-144.31;68.41;74752.78;5005605;28;20048;-74
2021/06/06 03:11:24;;;;;;;0.90;0.90;;;;;;;-144.31;68.41;74746.81;5004742;28;20057;-73
2021/06/06 03:13:55;;;;;;;0.80;0.80;;;;;;;-144.31;68.43;74728.84;5015261;28;20060;-74
2021/06/06 03:16:27;;;;;;;0.80;0.80;;;;;;;-144.31;68.43;74726.84;5006369;28;20480;-75
2021/06/06 03:18:56;;;;;;;0.80;0.80;;;;;;;-144.31;68.46;74734.81;5007298;28;20519;-74
2021/06/06 03:21:34;;;;;;;0.70;0.70;;;;;;;-144.31;68.49;74750.78;5004247;28;20042;-75
2021/06/06 03:24:06;;;;;;;0.90;0.90;;;;;;;-144.31;68.48;74742.81;5004641;28;20457;-75
2021/06/06 03:26:41;;;;;;;0.80;0.80;;;;;;;-144.31;68.52;74750.78;5001536;28;20050;-74
2021/06/06 03:29:10;;;;;;;0.73;0.73;;;;;;;-144.31;68.54;74754.78;5009373;28;20049;-75
2021/06/06 03:31:49;;;;;;;0.77;0.77;;;;;;;-144.31;68.55;74756.78;4985759;28;20408;-75
2021/06/06 03:34:17;;;;;;;0.68;0.68;;;;;;;-144.31;68.56;74748.81;4987893;28;20500;-75
2021/06/06 03:36:47;;;;;;;0.75;0.75;;;;;;;-144.31;68.58;74744.81;4990633;28;20169;-75
2021/06/06 03:39:27;;;;;;;0.70;0.70;;;;;;;-144.31;68.61;74758.78;5006711;28;20045;-76
2021/06/06 03:41:57;;;;;;;0.77;0.77;;;;;;;-144.31;68.63;74774.75;5016143;28;20501;-75
2021/06/06 03:44:23;;;;;;;0.70;0.70;;;;;;;-144.31;68.66;74764.78;5004423;28;20097;-74
2021/06/06 03:46:50;;;;;;;0.80;0.80;;;;;;;-144.31;68.70;74762.78;5014998;28;20056;-75
2021/06/06 03:49:24;;;;;;;1.23;0.80;;;;;;;-144.31;68.72;74764.78;5007229;28;20049;-74
2021/06/06 03:51:52;;;;;;;0.90;0.90;;;;;;;-144.31;68.77;74774.75;4999211;28;20125;-74
2021/06/06 03:54:19;;;;;;;0.75;0.75;;;;;;;-144.31;68.78;74768.78;5007464;28;20069;-74
2021/06/06 03:56:48;;;;;;;0.63;0.63;;;;;;;-144.31;68.82;74774.75;5005912;28;20046;-74
2021/06/06 03:59:17;;;;;;;0.90;0.90;;;;;;;-144.31;68.83;74760.78;5008447;28;20504;-74
2021/06/06 04:01:43;;;;;;;1.02;1.02;;;;;;;-144.31;68.87;74760.78;5004918;28;20041;-73
2021/06/06 04:04:10;;;;;;;1.00;1.00;;;;;;;-144.31;68.90;74762.78;5003669;28;20098;-73
2021/06/06 04:06:36;;;;;;;1.00;1.00;;;;;;;-144.31;68.92;74752.78;5014411;28;20500;-73
2021/06/06 04:09:05;;;;;;;1.13;1.10;;;;;;;-144.31;68.94;74760.78;5022428;28;20042;-73
2021/06/06 04:11:32;;;;;;;1.00;1.00;;;;;;;-144.31;68.96;74750.78;5012989;28;20430;-73
2021/06/06 04:14:07;;;;;;;0.90;0.90;;;;;;;-144.31;68.98;74748.81;5006673;28;20518;-73
2021/06/06 04:16:35;;;;;;;0.95;0.95;;;;;;;-144.31;68.99;74748.81;4987828;28;20050;-73
2021/06/06 04:19:03;;;;;;;0.88;0.88;;;;;;;-144.31;68.99;74740.81;5015869;28;20488;-75
2021/06/06 04:21:31;;;;;;;0.90;0.90;;;;;;;-144.31;69.02;74750.78;5005048;28;20045;-74
2021/06/06 04:23:57;;;;;;;;;;;;;;;-144.31;69.03;74750.78;5006722;28;20057;-74
2021/06/06 04:26:23;;;;;;;0.90;0.90;;;;;;;-144.31;69.04;74746.81;5007912;28;19917;-75
2021/06/06 04:28:52;;;;;;;0.90;0.90;;;;;;;-144.31;69.08;74764.78;5000438;28;20128;-74
2021/06/06 04:31:22;;;;;;;0.70;0.70;;;;;;;-144.31;69.09;74766.78;5006322;28;20512;-74
2021/06/06 04:33:49;;;;;;;0.70;0.70;;;;;;;-144.31;69.09;74762.78;5001813;28;20049;-73
2021/06/06 04:36:16;;;;;;;0.70;0.70;;;;;;;-144.31;69.10;74754.78;5002023;28;20089;-73
2021/06/06 04:38:45;;;;;;;0.80;0.80;;;;;;;-144.31;69.11;74754.78;5005566;28;20045;-73
2021/06/06 04:41:13;;;;;;;0.70;0.70;;;;;;;-144.31;69.12;74752.78;5006133;28;20148;-74
2021/06/06 04:43:39;;;;;;;0.70;0.70;;;;;;;-144.31;69.11;74740.81;5004982;28;20038;-73
2021/06/06 04:46:08;;;;;;;0.80;0.80;;;;;;;-144.31;69.14;74736.81;5005461;28;20056;-73
2021/06/06 04:48:45;;;;;;;0.60;0.60;;;;;;;-144.31;69.14;74740.81;5004638;28;20088;-74
2021/06/06 04:51:18;;;;;;;0.63;0.63;;;;;;;-144.31;69.15;74738.81;5006100;28;20537;-74
2021/06/06 04:53:50;;;;;;;0.70;0.70;;;;;;;-144.31;69.15;74740.81;5018213;28;20042;-74
2021/06/06 04:56:25;;;;;;;0.60;0.60;;;;;;;-144.31;69.16;74734.81;5005410;28;20077;-74
2021/06/06 04:58:55;;;;;;;0.60;0.60;;;;;;;-144.31;69.18;74746.81;5005037;28;20522;-73
2021/06/06 05:01:23;;;;;;;0.70;0.70;;;;;;;-144.31;69.20;74754.78;5001945;28;20072;-73
2021/06/06 05:03:51;;;;;;;0.73;0.73;;;;;;;-144.31;69.15;74728.84;5003719;28;20352;-74
2021/06/06 05:06:17;;;;;;;0.60;0.60;;;;;;;-144.31;69.21;74720.84;5003570;28;20404;-73
2021/06/06 05:08:44;;;;;;;0.70;0.70;;;;;;;-144.31;69.23;74730.81;5021042;28;20527;-73
2021/06/06 05:11:11;;;;;;;1.00;1.00;;;;;;;-144.31;69.23;74722.84;4987465;28;20115;-74
2021/06/06 05:13:37;;;;;;;0.90;0.90;;;;;;;-144.31;69.23;74726.84;5004596;28;20442;-73
2021/06/06 05:16:07;;;;;;;1.05;1.02;;;;;;;-144.31;69.66;74742.81;5016525;28;20042;-74
2021/06/06 05:18:34;;;;;;;0.90;0.90;;;;;;;-144.31;69.67;74744.81;5021333;28;20041;-74
2021/06/06 05:21:06;;;;;;;0.90;0.90;;;;;;;-144.31;69.62;74728.84;5005428;28;20623;-74
2021/06/06 05:23:34;;;;;;;0.70;0.70;;;;;;;-144.31;69.67;74746.81;5004612;28;20034;-75
2021/06/06 05:26:07;;;;;;;1.00;1.00;;;;;;;-144.31;69.62;74720.84;5006151;28;20092;-74
2021/06/06 05:28:35;;;;;;;0.90;0.90;;;;;;;-144.31;69.65;74736.81;5005166;28;20538;-74
2021/06/06 05:31:01;;;;;;;1.02;1.02;;;;;;;-144.31;69.62;74722.84;5005230;28;20068;-74
2021/06/06 05:33:27;;;;;;;0.80;0.80;;;;;;;-144.31;69.62;74722.84;5012154;28;20507;-74
2021/06/06 05:35:53;;;;;;;0.80;0.80;;;;;;;-144.31;69.60;74716.84;5003103;28;20064;-74
2021/06/06 05:38:21;;;;;;;0.77;0.77;;;;;;;-144.31;69.59;74726.84;5005043;28;20112;-74
2021/06/06 05:40:47;;;;;;;0.90;0.90;;;;;;;-144.31;69.58;74724.84;5005673;28;20495;-74
2021/06/06 05:43:14;;;;;;;0.80;0.80;;;;;;;-144.31;69.57;74728.84;5021745;28;20042;-75
2021/06/06 05:45:40;;;;;;;0.70;0.70;;;;;;;-144.31;69.55;74728.84;5000096;28;20055;-74
2021/06/06 05:48:07;;;;;;;0.90;0.90;;;;;;;-144.31;69.56;74738.81;5006559;28;20439;-74
2021/06/06 05:50:37;;;;;;;0.80;0.80;;;;;;;-144.31;69.57;74748.81;5004561;28;20115;-74
2021/06/06 05:53:23;;;;;;;0.70;0.70;;;;;;;-144.31;69.59;74764.78;5002637;28;20192;-74
2021/06/06 05:55:50;;;;;;;0.82;0.82;;;;;;;-144.31;69.58;74762.78;5002347;28;20120;-74
2021/06/06 05:58:18;;;;;;;0.75;0.75;;;;;;;-144.31;69.59;74768.78;5001600;28;20089;-74
2021/06/06 06:00:48;;;;;;;0.70;0.70;;;;;;;-144.31;69.59;74770.75;5003588;28;20068;-74
2021/06/06 06:03:18;;;;;;;0.68;0.68;;;;;;;-144.31;69.59;74768.78;5003448;28;20120;-74
2021/06/06 06:05:44;;;;;;;0.50;0.50;;;;;;;-144.31;69.59;74762.78;5005775;28;21594;-75
2021/06/06 06:08:25;;;;;;;0.70;0.70;;;;;;;-144.31;69.58;74746.81;5006144;28;20077;-74
2021/06/06 06:10:55;;;;;;;0.70;0.70;;;;;;;-144.31;69.57;74748.81;5003043;28;20092;-74
2021/06/06 06:13:24;;;;;;;0.60;0.60;;;;;;;-144.31;69.56;74734.81;5012213;28;20132;-74
2021/06/06 06:15:49;;;;;;;0.60;0.60;;;;;;;-144.31;69.54;74738.81;4996217;28;20050;-74
2021/06/06 06:18:17;;;;;;;0.88;0.60;;;;;;;-144.31;69.56;74744.81;5005225;28;20385;-74
2021/06/06 06:20:43;;;;;;;0.40;0.40;;;;;;;-144.31;69.56;74752.78;5000220;28;20478;-73
2021/06/06 06:23:09;;;;;;;0.70;0.70;;;;;;;-144.31;69.56;74750.78;5004296;28;20046;-75
2021/06/06 06:25:35;;;;;;;0.60;0.60;;;;;;;-144.31;69.56;74756.78;5003958;28;20084;-74
2021/06/06 06:28:00;;;;;;;0.50;0.50;;;;;;;-144.31;69.58;74762.78;5010349;28;20457;-73
2021/06/06 06:30:41;;;;;;;0.50;0.50;;;;;;;-144.31;69.56;74758.78;5006706;28;20045;-73
2021/06/06 06:33:08;;;;;;;0.47;0.47;;;;;;;-144.31;69.56;74754.78;5017592;28;20034;-73
2021/06/06 06:35:35;;;;;;;0.50;0.50;;;;;;;-144.31;69.54;74744.81;5003960;28;20046;-75
2021/06/06 06:38:02;;;;;;;0.40;0.40;;;;;;;-144.31;69.54;74738.81;5016420;28;20153;-74
2021/06/06 06:40:28;;;;;;;0.50;0.50;;;;;;;-144.31;69.58;74762.78;5009088;28;20042;-74
2021/06/06 06:42:55;;;;;;;0.60;0.60;;;;;;;-144.31;69.59;74762.78;5009345;28;20389;-73
2021/06/06 06:45:25;;;;;;;0.50;0.50;;;;;;;-144.31;69.59;74762.78;5003822;28;20357;-74
2021/06/06 06:47:50;;;;;;;0.57;0.57;;;;;;;-144.31;69.59;74754.78;5006568;28;20579;-74
2021/06/06 06:50:19;;;;;;;0.60;0.60;;;;;;;-144.31;69.56;74744.81;5009854;28;20440;-74
2021/06/06 06:52:47;;;;;;;0.60;0.60;;;;;;;-144.31;69.57;74740.81;5007825;28;20053;-74
2021/06/06 06:55:16;;;;;;;0.60;0.60;;;;;;;-144.31;69.58;74742.81;5008826;28;20080;-73
2021/06/06 06:57:42;;;;;;;0.60;0.60;;;;;;;-144.31;69.56;74730.81;5008909;28;20030;-73
2021/06/06 07:00:22;;;;;;;0.70;0.70;;;;;;;-144.31;69.56;74722.84;5008603;28;20104;-74
2021/06/06 07:02:48;;;;;;;0.80;0.80;;;;;;;-144.31;69.54;74710.84;5004716;28;20060;-74
2021/06/06 07:05:14;;;;;;;0.70;0.70;;;;;;;-144.31;69.52;74700.88;5005763;28;20046;-73
2021/06/06 07:07:39;;;;;;;0.80;0.80;;;;;;;-144.31;69.53;74708.88;5008458;28;20046;-73
2021/06/06 07:10:08;;;;;;;0.88;0.88;;;;;;;-144.31;69.50;74702.88;5009652;28;20050;-73
2021/06/06 07:12:33;;;;;;;1.00;0.90;;;;;;;-144.31;69.48;74698.88;5007376;28;20052;-73
2021/06/06 07:14:59;;;;;;;0.60;0.60;;;;;;;-144.31;69.47;74698.88;5009025;28;20050;-74
2021/06/06 07:17:25;;;;;;;0.75;0.75;;;;;;;-144.31;69.42;74690.88;5008263;28;20084;-75
2021/06/06 07:19:50;;;;;;;0.80;0.80;;;;;;;-144.31;69.42;74696.88;5006851;28;20046;-74
2021/06/06 07:22:19;;;;;;;0.70;0.70;;;;;;;-144.31;69.39;74686.91;5007237;28;20132;-73
2021/06/06 07:24:46;;;;;;;0.80;0.80;;;;;;;-144.31;69.36;74674.91;5006385;28;20065;-73
2021/06/06 07:27:12;;;;;;;0.88;0.88;;;;;;;-144.31;69.35;74686.91;5005275;28;20062;-73
2021/06/06 07:29:38;;;;;;;0.90;0.90;;;;;;;-144.31;69.34;74688.88;5005866;28;20038;-74
2021/06/06 07:32:05;;;;;;;0.80;0.80;;;;;;;-144.31;69.29;74670.91;5006065;28;20050;-73
2021/06/06 07:34:32;;;;;;;0.90;0.90;;;;;;;-144.31;69.27;74664.94;5006041;28;20038;-74
2021/06/06 07:37:04;;;;;;;0.90;0.90;;;;;;;-144.31;69.25;74674.91;5006530;28;20089;-73
2021/06/06 07:39:30;;;;;;;0.90;0.90;;;;;;;-144.31;69.22;74668.91;5005758;28;20492;-74
2021/06/06 07:41:59;;;;;;;0.63;0.63;;;;;;;-144.31;69.18;74662.94;5005023;28;20523;-74
2021/06/06 07:44:28;;;;;;;0.70;0.70;;;;;;;-144.31;69.18;74670.91;5014079;28;20035;-75
2021/06/06 07:46:53;;;;;;;0.80;0.80;;;;;;;-144.31;69.14;74662.94;5028281;28;20115;-73
2021/06/06 07:49:19;;;;;;;1.00;1.00;;;;;;;-144.31;69.12;74646.97;5013149;28;20585;-73
2021/06/06 07:51:45;;;;;;;0.80;0.80;;;;;;;-144.31;69.09;74648.94;5008258;28;20443;-74
2021/06/06 07:54:10;;;;;;;0.80;0.80;;;;;;;-144.31;69.07;74650.94;5012572;28;20085;-73
2021/06/06 07:56:37;;;;;;;0.90;0.90;;;;;;;-144.31;69.06;74644.97;5021377;28;20048;-73
2021/06/06 07:59:06;;;;;;;0.90;0.90;;;;;;;-144.31;69.04;74658.94;5007301;28;20045;-73
2021/06/06 08:01:31;;;;;;;0.90;0.90;;;;;;;-144.31;69.00;74650.94;5000082;28;20046;-74
2021/06/06 08:03:59;;;;;;;1.00;1.00;;;;;;;-144.31;69.00;74662.94;5005382;28;20048;-74
2021/06/06 08:06:25;;;;;;;1.10;1.10;;;;;;;-144.31;68.96;74648.94;5001299;28;20516;-75
2021/06/06 08:08:51;;;;;;;1.00;1.00;;;;;;;-144.31;68.94;74638.97;5003855;28;20042;-72
2021/06/06 08:11:19;;;;;;;1.10;1.10;;;;;;;-144.31;68.91;74638.97;5005769;28;20110;-73
2021/06/06 08:13:45;;;;;;;1.00;1.00;;;;;;;-144.31;68.90;74636.97;5006857;28;20050;-73
2021/06/06 08:16:11;;;;;;;1.00;1.00;;;;;;;-144.31;68.88;74634.97;5012011;28;20073;-74
2021/06/06 08:18:40;;;;;;;1.10;1.10;;;;;;;-144.31;68.86;74640.97;5003903;28;20042;-74
2021/06/06 08:21:19;;;;;;;1.10;1.10;;;;;;;-144.31;68.86;74648.94;5007602;28;20562;-73
2021/06/06 08:23:45;;;;;;;1.15;1.15;;;;;;;-144.31;68.82;74632.97;5005439;28;20434;-73
2021/06/06 08:26:12;;;;;;;1.10;1.10;;;;;;;-144.31;68.82;74632.97;5000979;28;20054;-74
2021/06/06 08:28:38;;;;;;;1.20;1.10;;;;;;;-144.31;68.82;74634.97;5006479;28;20046;-74
2021/06/06 08:31:07;;;;;;;1.20;1.10;;;;;;;-144.31;68.79;74628.97;5007309;28;20048;-73
2021/06/06 08:33:36;;;;;;;1.20;1.20;;;;;;;-144.31;68.80;74630.97;5002666;28;20049;-73
2021/06/06 08:36:16;;;;;;;1.15;1.15;;;;;;;-144.31;68.78;74628.97;5006082;28;20037;-74
2021/06/06 08:38:42;;;;;;;1.27;1.20;;;;;;;-144.31;68.79;74644.97;5019324;28;20128;-76
2021/06/06 08:41:44;;;;;;;1.20;1.20;;;;;;;-144.31;68.75;74625.00;5006454;28;20045;-76
2021/06/06 08:44:16;;;;;;;1.50;1.40;;;;;;;-144.31;68.74;74615.00;5000011;28;20132;-76
2021/06/06 08:47:12;;;;;;;1.45;1.35;;;;;;;-144.31;68.71;74599.03;5005084;28;20060;-76
2021/06/06 08:49:44;;;;;;;1.25;1.15;;;;;;;-144.31;68.70;74603.03;4985745;28;20074;-76
2021/06/06 08:52:18;;;;;;;1.40;1.30;;;;;;;-144.31;68.71;74613.00;5006008;28;20053;-75
2021/06/06 08:55:07;;;;;;;1.20;1.10;;;;;;;-144.31;68.68;74605.03;5000129;28;20046;-77
2021/06/06 08:57:38;;;;;;;1.50;1.40;;;;;;;-144.31;68.66;74599.03;5001580;28;20508;-76
2021/06/06 09:00:15;;;;;;;1.40;1.30;;;;;;;-144.31;68.66;74607.03;5004311;28;20048;-75
2021/06/06 09:02:53;;;;;;;1.40;1.30;;;;;;;-144.31;68.67;74615.00;5002354;28;20049;-75
2021/06/06 09:05:35;;;;;;;1.50;1.40;;;;;;;-144.31;68.65;74607.03;5001903;28;20046;-76
2021/06/06 09:08:02;;;;;;;1.40;1.30;;;;;;;-144.31;68.63;74609.00;5017889;28;20492;-76
2021/06/06 09:10:36;;;;;;;1.40;1.30;;;;;;;-144.31;68.62;74607.03;5020649;28;20453;-76
2021/06/06 09:13:04;;;;;;;1.50;1.40;;;;;;;-144.31;68.59;74593.03;5001634;28;20046;-76
2021/06/06 09:15:32;;;;;;;1.50;1.40;;;;;;;-144.31;68.57;74579.06;5020442;28;20587;-76
2021/06/06 09:18:14;;;;;;;1.48;1.38;;;;;;;-144.31;68.57;74579.06;5004360;28;20050;-76
2021/06/06 09:20:42;;;;;;;1.60;1.50;;;;;;;-144.31;68.57;74589.06;5005250;28;20045;-76
2021/06/06 09:23:30;;;;;;;1.60;1.50;;;;;;;-144.31;68.58;74597.03;4997862;28;20052;-76
2021/06/06 09:26:03;;;;;;;1.60;1.50;;;;;;;-144.31;68.55;74595.03;4998119;28;20045;-75
2021/06/06 09:28:30;;;;;;;1.60;1.50;;;;;;;-144.31;68.56;74603.03;5002523;28;20046;-75
2021/06/06 09:31:06;;;;;;;1.70;1.60;;;;;;;-144.31;68.54;74597.03;5005338;28;20061;-75
2021/06/06 09:33:58;;;;;;;1.58;1.48;;;;;;;-144.31;68.52;74587.06;5002501;28;20411;-75
2021/06/06 09:36:29;;;;;;;1.60;1.50;;;;;;;-144.31;68.49;74569.09;4994440;28;20045;-78
2021/06/06 09:39:09;;;;;;;1.70;1.60;;;;;;;-144.31;68.46;74543.13;5005916;28;20045;-75
2021/06/06 09:41:43;;;;;;;1.50;1.40;;;;;;;-144.31;68.43;74523.16;4993472;28;20536;-76
2021/06/06 09:44:15;;;;;;;1.67;1.58;;;;;;;-144.31;68.41;74511.19;5001644;28;20192;-76
2021/06/06 09:46:47;;;;;;;1.70;1.60;;;;;;;-144.31;68.40;74513.16;4999578;28;20052;-75
2021/06/06 09:49:30;;;;;;;1.60;1.50;;;;;;;-144.31;68.39;74511.19;5002147;28;20064;-76
2021/06/06 09:52:10;;;;;;;1.48;1.38;;;;;;;-144.31;68.37;74503.19;5000451;28;20144;-76
2021/06/06 09:54:36;;;;;;;1.30;1.30;;;;;;;-144.31;68.37;74511.19;4982193;28;20037;-76
2021/06/06 09:57:31;;;;;;;1.47;1.37;;;;;;;-144.31;68.33;74499.19;5004829;28;20073;-76
2021/06/06 10:00:16;;;;;;;1.30;1.20;;;;;;;-144.31;68.29;74467.25;4999412;28;20642;-76
2021/06/06 10:02:56;;;;;;;1.15;1.15;;;;;;;-144.31;68.24;74443.28;4998989;28;20042;-75
2021/06/06 10:05:39;;;;;;;1.10;1.10;;;;;;;-144.31;68.22;74439.28;5011743;28;20443;-76
2021/06/06 10:08:06;;;;;;;1.00;1.00;;;;;;;-144.31;68.21;74433.31;4996976;28;20048;-76
2021/06/06 10:10:32;;;;;;;1.05;1.05;;;;;;;-144.31;68.18;74415.34;5000936;28;20038;-77
2021/06/06 10:13:01;;;;;;;1.00;1.00;;;;;;;-144.31;68.18;74435.28;5000771;28;20480;-76
2021/06/06 10:15:48;;;;;;;1.00;1.00;;;;;;;-144.31;68.12;74383.38;5000887;28;20046;-77
2021/06/06 10:18:28;;;;;;;0.80;0.80;;;;;;;-144.31;68.12;74405.34;5001780;28;20042;-75
2021/06/06 10:21:24;;;;;;;0.80;0.80;;;;;;;-144.31;68.12;74415.34;4996800;28;20042;-76
2021/06/06 10:24:18;;;;;;;0.80;0.80;;;;;;;-144.31;68.12;74437.28;4971506;28;20050;-75
2021/06/06 10:26:51;;;;;;;1.00;1.00;;;;;;;-144.31;68.08;74425.31;5012754;28;20794;-76
2021/06/06 10:29:31;;;;;;;0.90;0.90;;;;;;;-144.31;68.08;74421.31;5003842;28;20050;-75
2021/06/06 10:32:22;;;;;;;0.90;0.90;;;;;;;-144.31;68.08;74427.31;5001072;28;20056;-79
2021/06/06 10:34:53;;;;;;;0.90;0.90;;;;;;;-144.31;68.06;74419.31;5003472;28;20116;-78
2021/06/06 10:37:19;;;;;;;0.90;0.90;;;;;;;-144.31;68.02;74385.38;5006036;28;20050;-78
2021/06/06 10:40:16;;;;;;;0.90;0.90;;;;;;;-144.31;68.01;74359.41;5012767;28;20069;-79
2021/06/06 10:42:54;;;;;;;0.80;0.80;;;;;;;-144.31;68.02;74375.41;4965338;28;20053;-78
2021/06/06 10:45:44;;;;;;;0.80;0.80;;;;;;;-144.31;68.05;74415.34;5004893;28;20068;-78
2021/06/06 10:48:30;;;;;;;0.90;0.90;;;;;;;-144.31;68.05;74421.31;5003523;28;20052;-78
2021/06/06 10:51:14;;;;;;;0.80;0.80;;;;;;;-144.31;68.04;74425.31;5004732;28;20052;-78
2021/06/06 10:53:51;;;;;;;0.93;0.93;;;;;;;-144.31;68.03;74427.31;4989489;28;20072;-78
2021/06/06 10:56:32;;;;;;;0.90;0.90;;;;;;;-144.31;68.02;74431.31;5006908;28;20073;-78
2021/06/06 10:59:05;;;;;;;0.90;0.90;;;;;;;-144.31;68.02;74431.31;5021922;28;20054;-77
2021/06/06 11:01:43;;;;;;;0.90;0.90;;;;;;;-144.31;68.00;74407.34;5008120;28;20090;-78
2021/06/06 11:04:31;;;;;;;0.90;0.90;;;;;;;-144.31;67.99;74379.38;5009663;28;20349;-78
2021/06/06 11:07:05;;;;;;;0.82;0.80;;;;;;;-144.31;67.97;74343.44;5002436;28;20077;-77
2021/06/06 11:09:35;;;;;;;0.70;0.70;;;;;;;-144.31;67.97;74325.47;5001516;28;20047;-78
2021/06/06 11:12:03;;;;;;;0.90;0.90;;;;;;;-144.31;67.97;74285.53;5004322;28;20050;-78
2021/06/06 11:14:48;;;;;;;0.80;0.80;;;;;;;-144.31;67.99;74281.56;5004991;28;20049;-78
2021/06/06 11:17:36;;;;;;;0.90;0.90;;;;;;;-144.31;68.04;74325.47;5004243;28;20046;-78
2021/06/06 11:20:14;;;;;;;0.80;0.80;;;;;;;-144.31;68.06;74351.44;4996826;28;20050;-78
2021/06/06 11:22:44;;;;;;;0.70;0.70;;;;;;;-144.31;68.07;74365.41;5006956;28;20061;-78
2021/06/06 11:25:28;;;;;;;0.82;0.82;;;;;;;-144.31;68.06;74369.41;5007849;28;20084;-78
2021/06/06 11:28:01;;;;;;;0.80;0.80;;;;;;;-144.31;68.03;74351.44;4987489;28;20416;-78
2021/06/06 11:30:27;;;;;;;0.90;0.90;;;;;;;-144.31;68.03;74361.41;4991309;28;20038;-78
2021/06/06 11:33:00;;;;;;;0.77;0.77;;;;;;;-144.31;68.05;74371.41;4992358;28;20037;-79
2021/06/06 11:35:35;;;;;;;0.85;0.85;;;;;;;-144.31;68.02;74351.44;5008181;28;20038;-80
2021/06/06 11:38:25;;;;;;;0.80;0.80;;;;;;;-144.31;68.00;74339.44;4992203;28;20072;-79
2021/06/06 11:41:15;;;;;;;0.60;0.60;;;;;;;-144.31;68.02;74355.44;5005987;28;20042;-80